createdAt,value
2022-08-30T00:02:13.406Z,6.60
2022-08-30T00:04:40.746Z,6.40
2022-08-30T00:07:09.395Z,6.10
2022-08-30T00:12:22.116Z,5.97
2022-08-30T00:14:49.807Z,5.60
2022-08-30T00:17:17.110Z,5.32
2022-08-30T00:19:44.385Z,6.07
2022-08-30T00:22:13.483Z,5.43
2022-08-30T00:24:40.956Z,4.57
2022-08-30T00:27:08.357Z,5.35
2022-08-30T00:29:36.007Z,6.15
2022-08-30T00:32:03.886Z,4.82
2022-08-30T00:34:31.251Z,5.97
2022-08-30T00:36:58.953Z,3.92
2022-08-30T00:39:27.797Z,4.43
2022-08-30T00:41:58.105Z,4.60
2022-08-30T00:44:25.971Z,5.70
2022-08-30T00:46:53.249Z,4.05
2022-08-30T00:49:20.612Z,4.38
2022-08-30T00:51:48.636Z,4.15
2022-08-30T00:54:16.259Z,5.78
2022-08-30T00:56:45.530Z,4.70
2022-08-30T00:59:13.650Z,6.25
2022-08-30T01:01:41.200Z,6.55
2022-08-30T01:04:10.044Z,5.20
2022-08-30T01:06:38.796Z,3.83
2022-08-30T01:09:06.769Z,6.25
2022-08-30T01:11:36.303Z,5.63
2022-08-30T01:14:06.779Z,4.65
2022-08-30T01:16:35.399Z,4.30
2022-08-30T01:19:03.944Z,5.95
2022-08-30T01:21:39.948Z,4.65
2022-08-30T01:24:09.578Z,4.80
2022-08-30T01:26:37.566Z,4.70
2022-08-30T01:29:09.776Z,5.60
2022-08-30T01:31:37.261Z,6.57
2022-08-30T01:34:06.201Z,6.15
2022-08-30T01:36:35.606Z,6.40
2022-08-30T01:39:03.626Z,6.95
2022-08-30T01:41:35.021Z,6.90
2022-08-30T01:44:05.490Z,6.45
2022-08-30T01:46:35.914Z,8.52
2022-08-30T01:49:06.809Z,6.60
2022-08-30T01:51:35.476Z,6.30
2022-08-30T01:54:03.262Z,6.40
2022-08-30T01:56:31.955Z,6.70
2022-08-30T01:59:02.949Z,6.93
2022-08-30T02:01:33.446Z,7.07
2022-08-30T02:04:01.326Z,8.00
2022-08-30T02:06:28.912Z,6.10
2022-08-30T02:08:56.264Z,7.95
2022-08-30T05:16:26.562Z,6.70
2022-08-30T05:18:54.846Z,6.70
2022-08-30T05:21:23.904Z,6.93
2022-08-30T05:23:53.842Z,6.40
2022-08-30T05:26:23.280Z,7.05
2022-08-30T05:28:53.727Z,7.72
2022-08-30T05:31:23.652Z,8.50
2022-08-30T05:33:54.008Z,7.50
2022-08-30T05:36:26.779Z,6.88
2022-08-30T05:38:54.773Z,7.25
2022-08-30T05:41:26.693Z,7.45
2022-08-30T05:43:57.696Z,7.28
2022-08-30T05:46:26.163Z,7.15
2022-08-30T05:48:56.293Z,7.82
2022-08-30T05:51:26.098Z,7.47
2022-08-30T05:53:54.108Z,7.15
2022-08-30T05:56:24.817Z,6.93
2022-08-30T05:58:54.258Z,6.75
2022-08-30T06:01:23.870Z,7.35
2022-08-30T06:03:51.723Z,7.40
2022-08-30T06:06:21.030Z,7.15
2022-08-30T06:08:48.898Z,8.10
2022-08-30T06:11:18.316Z,8.60
2022-08-30T06:13:46.261Z,8.90
2022-08-30T06:16:14.758Z,8.70
2022-08-30T06:18:42.633Z,8.50
2022-08-30T06:21:16.231Z,8.45
2022-08-30T06:23:45.063Z,8.77
2022-08-30T06:26:13.148Z,8.68
2022-08-30T06:28:40.565Z,8.77
2022-08-30T06:31:08.852Z,8.25
2022-08-30T06:33:36.935Z,9.60
2022-08-30T06:36:05.992Z,8.98
2022-08-30T06:38:34.071Z,8.07
2022-08-30T06:41:11.541Z,8.32
2022-08-30T06:43:38.972Z,7.65
2022-08-30T06:46:09.585Z,8.35
2022-08-30T06:48:36.982Z,7.32
2022-08-30T06:51:04.718Z,7.07
2022-08-30T06:53:32.800Z,7.93
2022-08-30T06:56:02.109Z,7.15
2022-08-30T06:58:31.800Z,6.85
2022-08-30T07:00:59.512Z,7.78
2022-08-30T07:03:27.214Z,7.20
2022-08-30T07:05:55.534Z,6.95
2022-08-30T07:08:25.090Z,6.88
2022-08-30T07:10:53.383Z,6.55
2022-08-30T07:13:22.554Z,6.18
2022-08-30T07:15:52.188Z,6.63
2022-08-30T07:18:19.822Z,6.20
2022-08-30T07:20:47.283Z,6.25
2022-08-30T07:23:15.146Z,6.25
2022-08-30T07:25:42.523Z,5.82
2022-08-30T07:28:10.184Z,6.60
2022-08-30T07:30:38.455Z,5.75
2022-08-30T07:33:07.836Z,6.72
2022-08-30T07:35:36.065Z,6.20
2022-08-30T07:38:03.679Z,6.40
2022-08-30T07:40:31.249Z,6.15
2022-08-30T07:42:58.842Z,6.40
2022-08-30T07:45:26.371Z,6.82
2022-08-30T07:47:53.781Z,6.03
2022-08-30T07:50:22.849Z,6.50
2022-08-30T07:52:50.349Z,5.88
2022-08-30T07:55:17.720Z,5.50
2022-08-30T07:57:45.149Z,3.90
2022-08-30T08:00:13.343Z,4.95
2022-08-30T08:02:40.863Z,4.75
2022-08-30T08:05:10.296Z,5.00
2022-08-30T08:07:41.837Z,5.47
2022-08-30T08:10:11.507Z,6.15
2022-08-30T08:12:38.891Z,6.22
2022-08-30T08:15:08.922Z,6.72
2022-08-30T08:17:36.459Z,5.63
2022-08-30T08:20:04.669Z,5.15
2022-08-30T08:22:34.094Z,5.00
2022-08-30T08:25:05.125Z,4.90
2022-08-30T08:27:32.661Z,4.03
2022-08-30T08:30:00.180Z,4.30
2022-08-30T08:32:27.449Z,3.90
2022-08-30T08:34:55.623Z,3.97
2022-08-30T08:37:22.876Z,4.32
2022-08-30T08:39:54.997Z,4.40
2022-08-30T08:42:32.426Z,3.42
2022-08-30T08:45:10.207Z,4.63
2022-08-30T08:47:41.411Z,4.07
2022-08-30T08:50:17.394Z,4.53
2022-08-30T08:52:50.724Z,3.45
2022-08-30T08:55:22.005Z,3.78
2022-08-30T08:57:51.140Z,4.57
2022-08-30T09:00:18.427Z,4.22
2022-08-30T09:02:47.976Z,4.55
2022-08-30T09:05:20.587Z,4.30
2022-08-30T09:07:52.146Z,3.85
2022-08-30T09:10:40.507Z,3.75
2022-08-30T09:13:12.988Z,3.53
2022-08-30T09:15:41.850Z,4.45
2022-08-30T09:18:18.945Z,4.13
2022-08-30T09:20:49.577Z,3.72
2022-08-30T09:23:25.965Z,3.15
2022-08-30T09:25:56.501Z,3.13
2022-08-30T09:28:27.580Z,3.50
2022-08-30T09:33:32.042Z,3.22
2022-08-30T09:36:13.737Z,3.00
2022-08-30T09:38:41.301Z,3.00
2022-08-30T09:41:29.961Z,3.30
2022-08-30T09:44:18.958Z,3.40
2022-08-30T09:46:50.783Z,2.90
2022-08-30T09:49:34.305Z,2.70
2022-08-30T09:52:34.797Z,2.65
2022-08-30T09:55:19.907Z,3.28
2022-08-30T09:57:59.961Z,3.33
2022-08-30T10:00:31.474Z,3.05
2022-08-30T10:03:35.232Z,2.70
2022-08-30T10:06:11.576Z,2.50
2022-08-30T10:08:58.976Z,2.13
2022-08-30T10:11:32.230Z,2.47
2022-08-30T10:14:22.099Z,2.30
2022-08-30T10:17:00.688Z,2.35
2022-08-30T10:19:42.884Z,2.30
2022-08-30T10:22:18.227Z,2.15
2022-08-30T10:24:50.465Z,2.42
2022-08-30T10:27:24.908Z,1.75
2022-08-30T10:29:57.141Z,1.85
2022-08-30T10:32:30.535Z,2.28
2022-08-30T10:35:06.449Z,1.77
2022-08-30T10:37:38.410Z,2.13
2022-08-30T10:40:14.925Z,2.20
2022-08-30T10:42:42.344Z,2.33
2022-08-30T10:45:16.020Z,2.10
2022-08-30T10:47:51.719Z,1.90
2022-08-30T10:50:25.226Z,1.95
2022-08-30T10:52:57.879Z,2.08
2022-08-30T10:55:28.471Z,1.90
2022-08-30T10:57:59.985Z,2.28
2022-08-30T11:00:30.445Z,2.10
2022-08-30T11:03:35.995Z,2.17
2022-08-30T11:06:17.588Z,2.00
2022-08-30T11:09:08.786Z,1.75
2022-08-30T11:11:49.926Z,1.80
2022-08-30T11:14:20.128Z,1.52
2022-08-30T11:16:58.032Z,1.60
2022-08-30T11:19:35.586Z,1.67
2022-08-30T11:22:13.463Z,1.80
2022-08-30T11:25:10.248Z,1.75
2022-08-30T11:27:46.065Z,1.90
2022-08-30T11:30:50.164Z,2.10
2022-08-30T11:33:46.710Z,2.00
2022-08-30T11:39:08.397Z,1.70
2022-08-30T11:41:42.474Z,1.88
2022-08-30T11:44:31.794Z,2.08
2022-08-30T11:46:59.944Z,1.65
2022-08-30T11:49:57.568Z,1.70
2022-08-30T11:55:25.551Z,1.42
2022-08-30T11:58:00.025Z,1.70
2022-08-30T12:00:34.400Z,1.60
2022-08-30T12:03:05.469Z,1.77
2022-08-30T12:05:58.954Z,1.63
2022-08-30T12:08:57.884Z,1.80
2022-08-30T12:11:55.350Z,2.00
2022-08-30T12:14:46.129Z,2.00
2022-08-30T12:17:21.150Z,2.00
2022-08-30T12:19:50.494Z,1.48
2022-08-30T12:22:19.177Z,1.80
2022-08-30T12:24:50.147Z,1.90
2022-08-30T12:27:26.495Z,1.50
2022-08-30T12:30:07.406Z,1.58
2022-08-30T12:32:44.608Z,1.80
2022-08-30T12:35:21.372Z,1.73
2022-08-30T12:37:57.129Z,1.85
2022-08-30T12:40:26.600Z,2.00
2022-08-30T12:42:56.178Z,1.75
2022-08-30T12:45:29.114Z,1.80
2022-08-30T12:48:03.168Z,1.55
2022-08-30T12:50:35.841Z,1.73
2022-08-30T12:53:13.039Z,1.50
2022-08-30T12:55:52.556Z,1.55
2022-08-30T12:58:36.075Z,1.90
2022-08-30T13:01:25.967Z,1.73
2022-08-30T13:04:00.834Z,1.73
2022-08-30T13:06:41.413Z,1.63
2022-08-30T13:09:10.335Z,1.67
2022-08-30T13:11:37.850Z,1.85
2022-08-30T13:14:30.649Z,1.77
2022-08-30T13:17:21.599Z,1.90
2022-08-30T13:20:02.093Z,1.77
2022-08-30T13:22:33.506Z,1.73
2022-08-30T13:25:02.055Z,1.83
2022-08-30T13:27:29.943Z,1.60
2022-08-30T13:29:58.596Z,2.13
2022-08-30T13:32:27.323Z,1.70
2022-08-30T13:34:54.569Z,1.90
2022-08-30T13:40:14.112Z,1.67
2022-08-30T13:42:41.948Z,1.90
2022-08-30T13:48:00.437Z,1.80
2022-08-30T13:50:28.565Z,2.05
2022-08-30T13:52:58.074Z,1.73
2022-08-30T13:55:26.085Z,1.63
2022-08-30T13:57:56.444Z,1.70
2022-08-30T14:00:25.575Z,1.80
2022-08-30T14:02:55.488Z,1.52
2022-08-30T14:11:05.914Z,1.90
2022-08-30T14:13:33.743Z,1.80
2022-08-30T14:18:52.911Z,1.70
2022-08-30T14:21:24.698Z,1.83
2022-08-30T14:23:53.174Z,1.55
2022-08-30T14:26:22.520Z,1.65
2022-08-30T14:28:51.857Z,2.00
2022-08-30T14:31:20.421Z,1.58
2022-08-30T14:33:47.985Z,1.63
2022-08-30T14:36:15.980Z,1.73
2022-08-30T14:38:45.355Z,1.88
2022-08-30T14:41:12.690Z,2.03
2022-08-30T14:43:40.256Z,1.95
2022-08-30T14:46:10.033Z,1.70
2022-08-30T14:48:38.385Z,1.40
2022-08-30T14:51:12.528Z,1.70
2022-08-30T14:53:40.222Z,1.60
2022-08-30T14:56:10.474Z,1.80
2022-08-30T14:58:38.309Z,1.73
2022-08-30T15:01:07.324Z,1.67
2022-08-30T15:03:34.811Z,1.50
2022-08-30T15:06:02.242Z,1.65
2022-08-30T15:08:30.342Z,1.58
2022-08-30T15:10:58.183Z,1.45
2022-08-30T15:13:27.337Z,1.50
2022-08-30T15:15:55.232Z,1.50
2022-08-30T15:18:22.664Z,1.50
2022-08-30T15:20:50.396Z,1.35
2022-08-30T15:23:18.143Z,1.50
2022-08-30T15:25:50.300Z,1.60
2022-08-30T15:28:17.846Z,1.60
2022-08-30T15:30:47.508Z,1.40
2022-08-30T15:33:14.984Z,1.55
2022-08-30T15:35:42.349Z,1.35
2022-08-30T15:38:09.997Z,1.27
2022-08-30T15:40:39.826Z,1.50
2022-08-30T15:43:07.268Z,1.42
2022-08-30T15:45:34.765Z,1.65
2022-08-30T15:48:04.139Z,1.42
2022-08-30T15:50:31.433Z,1.45
2022-08-30T15:52:58.918Z,1.45
2022-08-30T15:55:28.025Z,1.40
2022-08-30T15:57:55.717Z,1.40
2022-08-30T16:00:23.427Z,1.52
2022-08-30T16:02:50.640Z,1.60
2022-08-30T16:05:21.118Z,1.50
2022-08-30T16:07:48.982Z,1.60
2022-08-30T16:10:17.870Z,1.63
2022-08-30T16:12:45.927Z,1.60
2022-08-30T16:15:14.212Z,1.70
2022-08-30T16:17:41.594Z,1.40
2022-08-30T16:20:11.838Z,1.67
2022-08-30T16:22:45.887Z,1.50
2022-08-30T16:25:14.895Z,2.10
2022-08-30T16:27:42.489Z,1.80
2022-08-30T16:30:10.707Z,1.88
2022-08-30T16:32:40.715Z,1.90
2022-08-30T16:35:10.638Z,1.80
2022-08-30T16:37:40.491Z,2.03
2022-08-30T16:40:09.423Z,1.90
2022-08-30T16:42:38.054Z,2.10
2022-08-30T16:45:10.768Z,1.92
2022-08-30T16:47:38.739Z,2.10
2022-08-30T16:50:07.301Z,1.70
2022-08-30T16:52:34.592Z,2.05
2022-08-30T16:55:04.458Z,2.20
2022-08-30T16:57:31.989Z,1.65
2022-08-30T16:59:59.315Z,1.98
2022-08-30T17:02:27.116Z,1.70
2022-08-30T17:04:55.249Z,2.05
2022-08-30T17:07:22.895Z,2.30
2022-08-30T17:09:50.752Z,1.80
2022-08-30T17:12:19.788Z,1.77
2022-08-30T17:17:35.741Z,1.80
2022-08-30T17:20:03.888Z,1.90
2022-08-30T17:22:31.119Z,1.80
2022-08-30T17:24:59.276Z,1.90
2022-08-30T17:27:29.280Z,2.08
2022-08-30T17:29:56.673Z,1.75
2022-08-30T17:32:24.880Z,1.85
2022-08-30T17:34:52.655Z,1.88
2022-08-30T17:37:20.079Z,1.83
2022-08-30T17:39:48.540Z,1.77
2022-08-30T17:42:16.807Z,1.80
2022-08-30T17:44:45.996Z,1.92
2022-08-30T17:47:13.976Z,1.70
2022-08-30T17:49:41.469Z,1.55
2022-08-30T17:52:08.841Z,1.92
2022-08-30T17:54:39.910Z,1.70
2022-08-30T17:57:10.716Z,1.55
2022-08-30T17:59:39.885Z,1.60
2022-08-30T18:02:11.402Z,1.60
2022-08-30T18:04:39.029Z,1.65
2022-08-30T18:07:12.091Z,1.73
2022-08-30T18:09:39.778Z,1.70
2022-08-30T18:12:08.314Z,1.95
2022-08-30T18:14:39.303Z,1.60
2022-08-30T18:17:08.689Z,2.03
2022-08-30T18:19:37.200Z,1.80
2022-08-30T18:22:14.674Z,2.10
2022-08-30T18:24:43.535Z,1.92
2022-08-30T18:27:10.766Z,1.73
2022-08-30T18:29:38.535Z,1.70
2022-08-30T18:32:06.639Z,2.88
2022-08-30T18:34:38.329Z,1.90
2022-08-30T18:37:11.550Z,1.85
2022-08-30T18:39:40.298Z,1.90
2022-08-30T18:42:08.906Z,1.98
2022-08-30T18:44:37.571Z,1.85
2022-08-30T18:47:05.777Z,2.05
2022-08-30T18:49:35.272Z,2.03
2022-08-30T18:52:08.314Z,1.85
2022-08-30T18:54:38.967Z,2.20
2022-08-30T18:57:08.154Z,3.50
2022-08-30T18:59:37.619Z,2.35
2022-08-30T19:02:06.583Z,2.20
2022-08-30T19:04:35.565Z,2.17
2022-08-30T19:07:08.355Z,2.00
2022-08-30T19:09:38.020Z,2.40
2022-08-30T19:12:07.764Z,2.03
2022-08-30T19:14:38.969Z,2.08
2022-08-30T19:17:07.706Z,1.92
2022-08-30T19:19:46.270Z,1.73
2022-08-30T19:22:19.579Z,1.80
2022-08-30T19:24:47.757Z,2.10
2022-08-30T19:27:21.622Z,1.95
2022-08-30T19:30:06.471Z,1.90
2022-08-30T19:32:34.821Z,1.83
2022-08-30T19:35:02.236Z,2.10
2022-08-30T19:37:31.402Z,2.05
2022-08-30T19:40:02.844Z,1.90
2022-08-30T19:42:30.203Z,1.92
2022-08-30T19:44:57.696Z,1.75
2022-08-30T19:47:25.579Z,1.83
2022-08-30T19:49:52.870Z,2.08
2022-08-30T19:52:21.847Z,1.83
2022-08-30T19:54:51.040Z,2.00
2022-08-30T19:57:18.418Z,1.90
2022-08-30T19:59:45.756Z,1.80
2022-08-30T20:02:13.824Z,1.88
2022-08-30T20:04:41.494Z,1.70
2022-08-30T20:07:09.943Z,1.77
2022-08-30T20:09:38.489Z,1.60
2022-08-30T20:12:08.133Z,1.70
2022-08-30T20:14:35.472Z,1.50
2022-08-30T20:17:03.235Z,1.88
2022-08-30T20:19:30.478Z,1.90
2022-08-30T20:22:07.105Z,1.85
2022-08-30T20:24:23.416Z,1.70
2022-08-30T20:27:10.406Z,1.52
2022-08-30T20:29:38.583Z,1.73
2022-08-30T20:32:06.250Z,1.50
2022-08-30T20:34:33.637Z,1.33
2022-08-30T20:37:01.313Z,1.77
2022-08-30T20:39:30.532Z,1.40
2022-08-30T20:41:57.834Z,1.50
2022-08-30T20:44:27.418Z,1.63
2022-08-30T20:46:54.721Z,1.55
2022-08-30T20:49:22.205Z,1.83
2022-08-30T20:51:54.385Z,1.50
2022-08-30T20:54:22.378Z,1.38
2022-08-30T20:56:50.136Z,1.45
2022-08-30T20:59:18.142Z,1.50
2022-08-30T21:01:50.005Z,1.58
2022-08-30T21:04:17.515Z,1.60
2022-08-30T21:06:45.264Z,1.60
2022-08-30T21:09:12.874Z,1.80
2022-08-30T21:11:44.408Z,1.90
2022-08-30T21:14:12.840Z,1.40
2022-08-30T21:16:40.260Z,1.70
2022-08-30T21:19:09.227Z,1.40
2022-08-30T21:21:37.345Z,1.58
2022-08-30T21:24:06.329Z,1.70
2022-08-30T21:26:33.564Z,1.73
2022-08-30T21:29:01.423Z,1.60
2022-08-30T21:31:29.484Z,1.55
2022-08-30T21:33:57.191Z,1.33
2022-08-30T21:36:27.979Z,1.50
2022-08-30T21:38:57.500Z,1.67
2022-08-30T21:41:29.906Z,1.83
2022-08-30T21:43:58.853Z,1.80
2022-08-30T21:46:27.033Z,1.92
2022-08-30T21:48:56.899Z,1.58
2022-08-30T21:51:24.203Z,2.00
2022-08-30T21:53:52.891Z,1.95
2022-08-30T21:56:22.277Z,1.85
2022-08-30T21:58:50.117Z,1.92
2022-08-30T22:01:19.216Z,1.65
2022-08-30T22:03:47.043Z,2.00
2022-08-30T22:06:25.994Z,2.00
2022-08-30T22:09:20.749Z,2.15
2022-08-30T22:11:50.052Z,1.90
2022-08-30T22:14:18.065Z,1.77
2022-08-30T22:16:46.312Z,1.70
2022-08-30T22:19:14.568Z,2.33
2022-08-30T22:21:42.430Z,1.77
2022-08-30T22:24:10.718Z,1.65
2022-08-30T22:26:40.386Z,1.77
2022-08-30T22:29:08.791Z,1.70
2022-08-30T22:31:37.044Z,1.83
2022-08-30T22:34:10.642Z,1.70
2022-08-30T22:36:38.628Z,1.67
2022-08-30T22:39:08.326Z,1.80
2022-08-30T22:41:37.243Z,2.28
2022-08-30T22:44:06.239Z,1.52
2022-08-30T22:46:35.094Z,1.75
2022-08-30T22:49:04.558Z,1.98
2022-08-30T22:51:32.441Z,2.13
2022-08-30T22:54:00.354Z,2.47
2022-08-30T22:56:29.178Z,2.15
2022-08-30T22:58:57.035Z,2.53
2022-08-30T23:01:28.596Z,2.38
2022-08-30T23:06:25.061Z,2.22
2022-08-30T23:08:52.253Z,2.58
2022-08-30T23:11:20.412Z,2.10
2022-08-30T23:13:47.860Z,2.40
2022-08-30T23:16:16.521Z,2.30
2022-08-30T23:18:46.620Z,2.50
2022-08-30T23:21:16.703Z,2.30
2022-08-30T23:23:44.311Z,2.20
2022-08-30T23:26:11.954Z,2.63
2022-08-30T23:28:39.231Z,2.35
2022-08-30T23:31:11.115Z,2.33
2022-08-30T23:33:38.860Z,2.20
2022-08-30T23:36:09.631Z,2.25
2022-08-30T23:38:37.006Z,2.63
2022-08-30T23:41:05.265Z,2.22
2022-08-30T23:43:32.788Z,2.78
2022-08-30T23:46:00.409Z,2.08
2022-08-30T23:48:28.738Z,2.10
2022-08-30T23:50:55.944Z,2.50
2022-08-30T23:53:24.752Z,2.50
2022-08-30T23:55:52.711Z,2.55
2022-08-30T23:58:19.983Z,2.28
